Accueil
METAR-TAF:

METAR-TAF

Aéroports :

Seyresse

Dax, France

latitude: 43-41N, longitude: 001-04W, altitude: 32 m

Observation

Le bulletin a été fait il y a 38 minutes, à 22:30 UTC
Vent 4 kt de est/nord-est, variant entre nord-est et est
Température 21°C
Humidité 56%
Pression 1020 hPa
Visibilité 10 km ou plus

METAR: LFBY 172230Z AUTO 07004KT 040V100 9999 // ////// 21/12 Q1020

Heure: 01:08 (23:08 UTC)

Prévision

Le bulletin a été fait il y a 15 heures et 8 minutes, à 08:00 UTC
Prévision valable du 17 à 09 UTC au 17 à 18 UTC
Vent 10 kt de ouest/sud-ouest
Visibilité 10 km ou plus
pas de nuages en-dessous de 1500 mètres et pas de cumulonimbus.
Evoluant progressivement
du 17 à 16 UTC au 17 à 17 UTC
Vent 10 kt de nord

TAF: LFBY 170800Z 1709/1718 24010KT CAVOK BECMG 1716/1717 35010KT

Observations et prévisions météorologiques de plus de 4000 aéroports (messages METAR et TAF).

Les stations disponibles sont représentées par des disques jaunes et rouges sur la carte.

Passer la souris dessus pour voir le nom de la station.

Cliquer dessus pour voir les observations et prévisions météorologiques.

Pour changer de carte: cliquez sur les boutons verts avec une croix noire pour zoomer, sur le bouton vert avec un tiret pour effectuer un zoom arrière, ou sur les flèches vertes pour les cartes adjacentes.


METAR-TAF: